Sun Princess — ZCBU6 — position and weather

sailwx.info

Track history (hours):
 
Tides and Currents Weather Stations Pressure Air Temp Water Temp Dewpoint Dewpoint Depression Visibility Wind Speed Wind Dir Waves Ship Positions

Sun Princess

Operator: Princess Cruises

Last reported at 2019-Sep-20 18:00 UTC. Time now 2019-Sep-21 00:35 UTC.
Position N 34°06' E 127°30'.

Length 261.3 m; beam 32.3 m; draft 8.1 m.

Type: Passenger vessel. MMSI: 310438000.

Wind from 080 at 25 knots

Barometer 1015.7 mb
Air temperature 21.0 ° C
Visibility: greater than 10.8 NM
Dewpoint 19.4 ° C
Water temperature 22.9 ° C

Date/timePositionNaut miles runAvg speedWind from/ knotsBaromVisibWave heightAir tempDewpointWater temp
2019-Sep-20 18:00N 34°06' E 127°30'9918.8 080 / 251015.710.8 21.019.422.9
2019-Sep-20 12:44N 35°05' E 129°07'2 8.8
2019-Sep-20 12:30N 35°06' E 129°05'2 2.8
2019-Sep-20 11:55N 35°07' E 129°03'0 0.0
2019-Sep-20 11:25N 35°07' E 129°03'0 0.0
2019-Sep-20 10:55N 35°07' E 129°03'0 0.0
2019-Sep-20 10:25N 35°07' E 129°03'0 0.0
2019-Sep-20 09:55N 35°07' E 129°03'0 0.0
2019-Sep-20 09:25N 35°07' E 129°03'0 0.0
2019-Sep-20 08:55N 35°07' E 129°03'0 0.0
2019-Sep-20 08:25N 35°07' E 129°03'0 0.0
2019-Sep-20 07:55N 35°07' E 129°03'0 0.0
2019-Sep-20 07:25N 35°07' E 129°03'0 0.0
2019-Sep-20 06:55N 35°07' E 129°03'0 0.0
2019-Sep-20 06:25N 35°07' E 129°03'0 0.0
2019-Sep-20 05:55N 35°07' E 129°03'0 0.0
2019-Sep-20 05:25N 35°07' E 129°03'0 0.0
2019-Sep-20 04:55N 35°07' E 129°03'0 0.0
2019-Sep-20 04:25N 35°07' E 129°03'0 0.0
2019-Sep-20 03:55N 35°07' E 129°03'0 0.3
2019-Sep-20 03:31N 35°07' E 129°03'3 5.6
2019-Sep-20 03:00N 35°05' E 129°06'15116.7
2019-Sep-19 18:00N 32°54' E 127°36'14028.0 050 / 301011.410.8 24.017.627.9
2019-Sep-19 13:00N 30°42' E 126°42'4711.7 010 / 321011.010.8 27.020.227.3
2019-Sep-19 09:00N 30°36' E 125°48'4815.9 010 / 321011.010.8 27.020.227.3
2019-Sep-19 06:00N 30°00' E 125°12'30116.7 050 / 351010.710.8 27.020.227.3
2019-Sep-18 11:58N 25°54' E 121°55'715.7
2019-Sep-18 11:30N 25°48' E 121°52'1015.3
2019-Sep-18 10:49N 25°38' E 121°48'615.1
2019-Sep-18 10:27N 25°32' E 121°48'714.7
2019-Sep-18 09:59N 25°26' E 121°47'713.0
2019-Sep-18 09:28N 25°19' E 121°47'612.9
2019-Sep-18 09:01N 25°13' E 121°46'4 8.1
2019-Sep-18 08:30N 25°09' E 121°45'1 2.4
2019-Sep-18 08:00N 25°08' E 121°45'0 0.0
2019-Sep-18 07:29N 25°08' E 121°45'0 0.0
2019-Sep-18 06:59N 25°08' E 121°45'0 0.0
2019-Sep-18 06:29N 25°08' E 121°45'0 0.0
2019-Sep-18 05:59N 25°08' E 121°45'0 0.0
2019-Sep-18 05:29N 25°08' E 121°45'0 0.0
2019-Sep-18 04:59N 25°08' E 121°45'0 0.0
2019-Sep-18 04:29N 25°08' E 121°45'0 0.0
2019-Sep-18 03:59N 25°08' E 121°45'0 0.0
2019-Sep-18 03:29N 25°08' E 121°45'0 0.0
2019-Sep-18 02:59N 25°08' E 121°45'0 0.0
2019-Sep-18 02:29N 25°08' E 121°45'0 0.0
2019-Sep-18 01:56N 25°08' E 121°45'0 0.0
2019-Sep-18 01:26N 25°08' E 121°45'0 0.0
2019-Sep-18 00:59N 25°08' E 121°45'0 0.0
2019-Sep-18 00:26N 25°08' E 121°45'0 0.0
2019-Sep-17 23:59N 25°08' E 121°45'0 0.0
2019-Sep-17 23:29N 25°08' E 121°45'0 0.0
2019-Sep-17 22:59N 25°08' E 121°45'1 1.3
2019-Sep-17 22:30N 25°08' E 121°45'4 8.9
2019-Sep-17 22:00N 25°13' E 121°45'612.3
2019-Sep-17 21:30N 25°14' E 121°51'611.5
2019-Sep-17 20:59N 25°12' E 121°58'510.1
2019-Sep-17 20:29N 25°10' E 122°03'712.2
2019-Sep-17 19:55N 25°08' E 122°10'912.1
2019-Sep-17 19:12N 25°04' E 122°19'521.1
2019-Sep-17 19:00N 25°00' E 122°18'634.7 030 / 351007.6 5.4 27.024.129.5
2019-Sep-17 18:50N 25°03' E 122°24'192 7.7
2019-Sep-16 18:00N 25°30' E 125°54'55 2.3 030 / 251004.5 5.4 28.025.229.5
2019-Sep-15 18:00N 25°42' E 124°54'16219.5 010 / 351003.110.8 27.525.429.5
2019-Sep-15 09:41N 25°15' E 121°57'318.2
2019-Sep-15 09:30N 25°15' E 121°53'714.1
2019-Sep-15 09:01N 25°12' E 121°46'3 6.8
2019-Sep-15 08:31N 25°09' E 121°45'1 2.3
2019-Sep-15 08:01N 25°08' E 121°45'0 0.0
2019-Sep-15 07:25N 25°08' E 121°45'0 0.0
2019-Sep-15 06:49N 25°08' E 121°45'0 0.0
2019-Sep-15 06:25N 25°08' E 121°45'0 0.0
2019-Sep-15 05:55N 25°08' E 121°45'0 0.0
2019-Sep-15 05:25N 25°08' E 121°45'0 0.0
2019-Sep-15 04:55N 25°08' E 121°45'0 0.0
2019-Sep-15 04:25N 25°08' E 121°45'0 0.0
2019-Sep-15 03:55N 25°08' E 121°45'0 0.0
2019-Sep-15 03:25N 25°08' E 121°45'0 0.0
2019-Sep-15 02:55N 25°08' E 121°45'0 0.0
2019-Sep-15 02:25N 25°08' E 121°45'0 0.0
2019-Sep-15 01:55N 25°08' E 121°45'0 0.0
2019-Sep-15 01:25N 25°08' E 121°45'0 0.0
2019-Sep-15 00:55N 25°08' E 121°45'0 0.0
2019-Sep-15 00:25N 25°08' E 121°45'0 0.0
2019-Sep-14 23:49N 25°08' E 121°45'0 0.0
2019-Sep-14 23:25N 25°08' E 121°45'0 0.0
2019-Sep-14 22:55N 25°08' E 121°45'1 2.4
2019-Sep-14 22:30N 25°09' E 121°45'5 9.4
2019-Sep-14 22:00N 25°13' E 121°45'611.2
2019-Sep-14 21:30N 25°14' E 121°51'24 9.5
2019-Sep-14 19:00N 25°00' E 122°12'204 8.2 010 / 201006.610.8 28.023.729.0
2019-Sep-13 18:00N 26°00' E 125°48'173 7.2 020 / 141005.210.8 28.026.628.6
2019-Sep-12 18:00N 27°42' E 128°24'10012.5 030 / 151006.710.8 27.526.128.6
2019-Sep-12 10:00N 26°12' E 127°36'104 7.4 040 / 111008.110.8 29.524.528.3
2019-Sep-11 20:00N 25°54' E 125°42'17220.0 060 / 201009.227.0 28.025.228.0
2019-Sep-11 11:26N 25°20' E 122°35'919.9
2019-Sep-11 11:00N 25°19' E 122°26'1019.7
2019-Sep-11 10:29N 25°17' E 122°15'1018.8
2019-Sep-11 09:58N 25°17' E 122°04'816.7
2019-Sep-11 09:31N 25°15' E 121°56'816.0
2019-Sep-11 09:01N 25°13' E 121°48'4 8.1
2019-Sep-11 08:31N 25°09' E 121°45'1 2.5
2019-Sep-11 08:00N 25°08' E 121°45'0 0.0
2019-Sep-11 07:28N 25°08' E 121°45'0 0.0
2019-Sep-11 06:55N 25°08' E 121°45'0 0.0
2019-Sep-11 06:28N 25°08' E 121°45'0 0.0
2019-Sep-11 05:58N 25°08' E 121°45'0 0.0
2019-Sep-11 05:28N 25°08' E 121°45'0 0.0
2019-Sep-11 04:58N 25°08' E 121°45'0 0.0
2019-Sep-11 04:28N 25°08' E 121°45'0 0.0
2019-Sep-11 03:58N 25°08' E 121°45'0 0.0
2019-Sep-11 03:28N 25°08' E 121°45'0 0.0
2019-Sep-11 02:58N 25°08' E 121°45'0 0.0
2019-Sep-11 02:28N 25°08' E 121°45'0 0.0
2019-Sep-11 01:58N 25°08' E 121°45'0 0.0
2019-Sep-11 01:28N 25°08' E 121°45'0 0.0
2019-Sep-11 00:58N 25°08' E 121°45'0 0.0
2019-Sep-11 00:28N 25°08' E 121°45'0 0.0
2019-Sep-10 23:58N 25°08' E 121°45'0 0.0
2019-Sep-10 23:25N 25°08' E 121°45'0 0.0
2019-Sep-10 22:58N 25°08' E 121°45'1 2.2
2019-Sep-10 22:30N 25°09' E 121°45'5 9.5
2019-Sep-10 22:00N 25°13' E 121°45'510.1
2019-Sep-10 21:30N 25°14' E 121°50'712.5
2019-Sep-10 20:57N 25°12' E 121°58'612.5
2019-Sep-10 20:30N 25°10' E 122°03'611.4
2019-Sep-10 20:00N 25°08' E 122°09'612.0
2019-Sep-10 19:28N 25°06' E 122°16'612.3
2019-Sep-10 19:00N 25°00' E 122°18'564.5 160 / 171011.610.8 28.025.929.6
2019-Sep-10 18:55N 25°03' E 122°23'611.9
2019-Sep-10 18:24N 25°01' E 122°29'  
Track history (hours):
 
Tides and Currents Weather Stations Pressure Air Temp Water Temp Dewpoint Dewpoint Depression Visibility Wind Speed Wind Dir Waves Ship Positions

Sun Princess

Operator: Princess Cruises

Last reported at 2019-Sep-20 18:00 UTC. Time now 2019-Sep-21 00:35 UTC.
Position N 34°06' E 127°30'.

Length 261.3 m; beam 32.3 m; draft 8.1 m.

Type: Passenger vessel. MMSI: 310438000.

Wind from 080 at 25 knots

Barometer 1015.7 mb
Air temperature 21.0 ° C
Visibility: greater than 10.8 NM
Dewpoint 19.4 ° C
Water temperature 22.9 ° C

Date/timePositionNaut miles runAvg speedWind from/ knotsBaromVisibWave heightAir tempDewpointWater temp
2019-Sep-20 18:00N 34°06' E 127°30'9918.8 080 / 251015.710.8 21.019.422.9
2019-Sep-20 12:44N 35°05' E 129°07'2 8.8
2019-Sep-20 12:30N 35°06' E 129°05'2 2.8
2019-Sep-20 11:55N 35°07' E 129°03'0 0.0
2019-Sep-20 11:25N 35°07' E 129°03'0 0.0
2019-Sep-20 10:55N 35°07' E 129°03'0 0.0
2019-Sep-20 10:25N 35°07' E 129°03'0 0.0
2019-Sep-20 09:55N 35°07' E 129°03'0 0.0
2019-Sep-20 09:25N 35°07' E 129°03'0 0.0
2019-Sep-20 08:55N 35°07' E 129°03'0 0.0
2019-Sep-20 08:25N 35°07' E 129°03'0 0.0
2019-Sep-20 07:55N 35°07' E 129°03'0 0.0
2019-Sep-20 07:25N 35°07' E 129°03'0 0.0
2019-Sep-20 06:55N 35°07' E 129°03'0 0.0
2019-Sep-20 06:25N 35°07' E 129°03'0 0.0
2019-Sep-20 05:55N 35°07' E 129°03'0 0.0
2019-Sep-20 05:25N 35°07' E 129°03'0 0.0
2019-Sep-20 04:55N 35°07' E 129°03'0 0.0
2019-Sep-20 04:25N 35°07' E 129°03'0 0.0
2019-Sep-20 03:55N 35°07' E 129°03'0 0.3
2019-Sep-20 03:31N 35°07' E 129°03'3 5.6
2019-Sep-20 03:00N 35°05' E 129°06'15116.7
2019-Sep-19 18:00N 32°54' E 127°36'14028.0 050 / 301011.410.8 24.017.627.9
2019-Sep-19 13:00N 30°42' E 126°42'4711.7 010 / 321011.010.8 27.020.227.3
2019-Sep-19 09:00N 30°36' E 125°48'4815.9 010 / 321011.010.8 27.020.227.3
2019-Sep-19 06:00N 30°00' E 125°12'30116.7 050 / 351010.710.8 27.020.227.3
2019-Sep-18 11:58N 25°54' E 121°55'715.7
2019-Sep-18 11:30N 25°48' E 121°52'1015.3
2019-Sep-18 10:49N 25°38' E 121°48'615.1
2019-Sep-18 10:27N 25°32' E 121°48'714.7
2019-Sep-18 09:59N 25°26' E 121°47'713.0
2019-Sep-18 09:28N 25°19' E 121°47'612.9
2019-Sep-18 09:01N 25°13' E 121°46'4 8.1
2019-Sep-18 08:30N 25°09' E 121°45'1 2.4
2019-Sep-18 08:00N 25°08' E 121°45'0 0.0
2019-Sep-18 07:29N 25°08' E 121°45'0 0.0
2019-Sep-18 06:59N 25°08' E 121°45'0 0.0
2019-Sep-18 06:29N 25°08' E 121°45'0 0.0
2019-Sep-18 05:59N 25°08' E 121°45'0 0.0
2019-Sep-18 05:29N 25°08' E 121°45'0 0.0
2019-Sep-18 04:59N 25°08' E 121°45'0 0.0
2019-Sep-18 04:29N 25°08' E 121°45'0 0.0
2019-Sep-18 03:59N 25°08' E 121°45'0 0.0
2019-Sep-18 03:29N 25°08' E 121°45'0 0.0
2019-Sep-18 02:59N 25°08' E 121°45'0 0.0
2019-Sep-18 02:29N 25°08' E 121°45'0 0.0
2019-Sep-18 01:56N 25°08' E 121°45'0 0.0
2019-Sep-18 01:26N 25°08' E 121°45'0 0.0
2019-Sep-18 00:59N 25°08' E 121°45'0 0.0
2019-Sep-18 00:26N 25°08' E 121°45'0 0.0
2019-Sep-17 23:59N 25°08' E 121°45'0 0.0
2019-Sep-17 23:29N 25°08' E 121°45'0 0.0
2019-Sep-17 22:59N 25°08' E 121°45'1 1.3
2019-Sep-17 22:30N 25°08' E 121°45'4 8.9
2019-Sep-17 22:00N 25°13' E 121°45'612.3
2019-Sep-17 21:30N 25°14' E 121°51'611.5
2019-Sep-17 20:59N 25°12' E 121°58'510.1
2019-Sep-17 20:29N 25°10' E 122°03'712.2
2019-Sep-17 19:55N 25°08' E 122°10'912.1
2019-Sep-17 19:12N 25°04' E 122°19'521.1
2019-Sep-17 19:00N 25°00' E 122°18'634.7 030 / 351007.6 5.4 27.024.129.5
2019-Sep-17 18:50N 25°03' E 122°24'192 7.7
2019-Sep-16 18:00N 25°30' E 125°54'55 2.3 030 / 251004.5 5.4 28.025.229.5
2019-Sep-15 18:00N 25°42' E 124°54'16219.5 010 / 351003.110.8 27.525.429.5
2019-Sep-15 09:41N 25°15' E 121°57'318.2
2019-Sep-15 09:30N 25°15' E 121°53'714.1
2019-Sep-15 09:01N 25°12' E 121°46'3 6.8
2019-Sep-15 08:31N 25°09' E 121°45'1 2.3
2019-Sep-15 08:01N 25°08' E 121°45'0 0.0
2019-Sep-15 07:25N 25°08' E 121°45'0 0.0
2019-Sep-15 06:49N 25°08' E 121°45'0 0.0
2019-Sep-15 06:25N 25°08' E 121°45'0 0.0
2019-Sep-15 05:55N 25°08' E 121°45'0 0.0
2019-Sep-15 05:25N 25°08' E 121°45'0 0.0
2019-Sep-15 04:55N 25°08' E 121°45'0 0.0
2019-Sep-15 04:25N 25°08' E 121°45'0 0.0
2019-Sep-15 03:55N 25°08' E 121°45'0 0.0
2019-Sep-15 03:25N 25°08' E 121°45'0 0.0
2019-Sep-15 02:55N 25°08' E 121°45'0 0.0
2019-Sep-15 02:25N 25°08' E 121°45'0 0.0
2019-Sep-15 01:55N 25°08' E 121°45'0 0.0
2019-Sep-15 01:25N 25°08' E 121°45'0 0.0
2019-Sep-15 00:55N 25°08' E 121°45'0 0.0
2019-Sep-15 00:25N 25°08' E 121°45'0 0.0
2019-Sep-14 23:49N 25°08' E 121°45'0 0.0
2019-Sep-14 23:25N 25°08' E 121°45'0 0.0
2019-Sep-14 22:55N 25°08' E 121°45'1 2.4
2019-Sep-14 22:30N 25°09' E 121°45'5 9.4
2019-Sep-14 22:00N 25°13' E 121°45'611.2
2019-Sep-14 21:30N 25°14' E 121°51'24 9.5
2019-Sep-14 19:00N 25°00' E 122°12'204 8.2 010 / 201006.610.8 28.023.729.0
2019-Sep-13 18:00N 26°00' E 125°48'173 7.2 020 / 141005.210.8 28.026.628.6
2019-Sep-12 18:00N 27°42' E 128°24'10012.5 030 / 151006.710.8 27.526.128.6
2019-Sep-12 10:00N 26°12' E 127°36'104 7.4 040 / 111008.110.8 29.524.528.3
2019-Sep-11 20:00N 25°54' E 125°42'17220.0 060 / 201009.227.0 28.025.228.0
2019-Sep-11 11:26N 25°20' E 122°35'919.9
2019-Sep-11 11:00N 25°19' E 122°26'1019.7
2019-Sep-11 10:29N 25°17' E 122°15'1018.8
2019-Sep-11 09:58N 25°17' E 122°04'816.7
2019-Sep-11 09:31N 25°15' E 121°56'816.0
2019-Sep-11 09:01N 25°13' E 121°48'4 8.1
2019-Sep-11 08:31N 25°09' E 121°45'1 2.5
2019-Sep-11 08:00N 25°08' E 121°45'0 0.0
2019-Sep-11 07:28N 25°08' E 121°45'0 0.0
2019-Sep-11 06:55N 25°08' E 121°45'0 0.0
2019-Sep-11 06:28N 25°08' E 121°45'0 0.0
2019-Sep-11 05:58N 25°08' E 121°45'0 0.0
2019-Sep-11 05:28N 25°08' E 121°45'0 0.0
2019-Sep-11 04:58N 25°08' E 121°45'0 0.0
2019-Sep-11 04:28N 25°08' E 121°45'0 0.0
2019-Sep-11 03:58N 25°08' E 121°45'0 0.0
2019-Sep-11 03:28N 25°08' E 121°45'0 0.0
2019-Sep-11 02:58N 25°08' E 121°45'0 0.0
2019-Sep-11 02:28N 25°08' E 121°45'0 0.0
2019-Sep-11 01:58N 25°08' E 121°45'0 0.0
2019-Sep-11 01:28N 25°08' E 121°45'0 0.0
2019-Sep-11 00:58N 25°08' E 121°45'0 0.0
2019-Sep-11 00:28N 25°08' E 121°45'0 0.0
2019-Sep-10 23:58N 25°08' E 121°45'0 0.0
2019-Sep-10 23:25N 25°08' E 121°45'0 0.0
2019-Sep-10 22:58N 25°08' E 121°45'1 2.2
2019-Sep-10 22:30N 25°09' E 121°45'5 9.5
2019-Sep-10 22:00N 25°13' E 121°45'510.1
2019-Sep-10 21:30N 25°14' E 121°50'712.5
2019-Sep-10 20:57N 25°12' E 121°58'612.5
2019-Sep-10 20:30N 25°10' E 122°03'611.4
2019-Sep-10 20:00N 25°08' E 122°09'612.0
2019-Sep-10 19:28N 25°06' E 122°16'612.3
2019-Sep-10 19:00N 25°00' E 122°18'564.5 160 / 171011.610.8 28.025.929.6
2019-Sep-10 18:55N 25°03' E 122°23'611.9
2019-Sep-10 18:24N 25°01' E 122°29'  

Dump ship's entire track history